createdAt,value
2022-09-22T00:02:10.022Z,98257.31
2022-09-22T00:12:13.313Z,98244.59
2022-09-22T00:22:14.798Z,98242.66
2022-09-22T00:32:16.220Z,98232.84
2022-09-22T00:42:18.426Z,98228.94
2022-09-22T00:52:25.935Z,98229.69
2022-09-22T01:02:27.420Z,98220.22
2022-09-22T01:12:30.875Z,98225.56
2022-09-22T01:22:55.709Z,98220.22
2022-09-22T01:33:06.320Z,98207.09
2022-09-22T01:43:15.601Z,98215.31
2022-09-22T01:53:20.320Z,98206.03
2022-09-22T02:03:33.690Z,98206.66
2022-09-22T02:13:36.054Z,98206.00
2022-09-22T02:23:37.556Z,98200.31
2022-09-22T02:33:40.634Z,98202.19
2022-09-22T02:43:54.020Z,98201.34
2022-09-22T02:53:55.437Z,98200.75
2022-09-22T03:03:56.870Z,98202.72
2022-09-22T03:13:58.465Z,98190.09
2022-09-22T03:24:00.014Z,98185.31
2022-09-22T03:34:01.468Z,98193.91
2022-09-22T03:44:03.090Z,98193.78
2022-09-22T03:54:04.567Z,98190.34
2022-09-22T04:04:06.083Z,98187.56
2022-09-22T04:14:07.481Z,98190.50
2022-09-22T04:24:09.442Z,98197.94
2022-09-22T04:34:10.860Z,98196.34
2022-09-22T04:44:12.232Z,98197.78
2022-09-22T04:54:16.677Z,98193.06
2022-09-22T05:04:18.130Z,98205.44
2022-09-22T05:14:24.102Z,98205.94
2022-09-22T05:24:27.658Z,98223.66
2022-09-22T05:34:29.059Z,98220.19
2022-09-22T05:44:30.429Z,98221.03
2022-09-22T05:54:31.870Z,98218.72
2022-09-22T06:04:33.266Z,98219.38
2022-09-22T06:14:35.600Z,98212.03
2022-09-22T06:24:37.222Z,98221.16
2022-09-22T06:34:38.605Z,98214.41
2022-09-22T06:44:41.201Z,98211.44
2022-09-22T06:54:42.762Z,98204.28
2022-09-22T07:04:44.187Z,98202.16
2022-09-22T07:14:48.925Z,98205.69
2022-09-22T07:24:50.395Z,98181.44
2022-09-22T07:34:53.606Z,98171.56
2022-09-22T07:45:13.248Z,98159.09
2022-09-22T07:55:15.177Z,98154.72
2022-09-22T08:05:16.565Z,98145.47
2022-09-22T08:15:24.614Z,98144.59
2022-09-22T08:25:28.802Z,98141.25
2022-09-22T08:35:30.253Z,98140.16
2022-09-22T08:45:38.390Z,98133.28
2022-09-22T08:55:43.057Z,98113.19
2022-09-22T09:06:04.137Z,98112.16
2022-09-22T09:16:25.763Z,98106.66
2022-09-22T09:26:28.797Z,98094.28
2022-09-22T09:36:33.811Z,98103.09
2022-09-22T09:46:44.119Z,98092.91
2022-09-22T09:57:11.600Z,98085.22
2022-09-22T10:07:15.605Z,98088.28
2022-09-22T10:17:27.036Z,98071.28
2022-09-22T10:27:30.812Z,98066.25
2022-09-22T10:37:32.605Z,98068.59
2022-09-22T10:47:51.912Z,98058.66
2022-09-22T10:58:14.705Z,98060.38
2022-09-22T11:08:38.049Z,98054.44
2022-09-22T11:18:42.200Z,98066.75
2022-09-22T11:28:57.441Z,98066.47
2022-09-22T11:39:47.564Z,98062.97
2022-09-22T11:50:08.833Z,98056.09
2022-09-22T12:00:19.038Z,98044.91
2022-09-22T12:10:35.477Z,98028.66
2022-09-22T12:20:49.270Z,98032.38
2022-09-22T12:31:05.250Z,98020.38
2022-09-22T12:41:12.623Z,98019.19
2022-09-22T12:51:25.990Z,98009.50
2022-09-22T13:01:34.535Z,98005.91
2022-09-22T13:12:13.176Z,97988.25
2022-09-22T13:22:17.911Z,97997.63
2022-09-22T13:32:26.900Z,97990.53
2022-09-22T13:42:34.081Z,97991.47
2022-09-22T13:52:38.972Z,97976.34
2022-09-22T14:02:44.362Z,97968.44
2022-09-22T14:12:48.853Z,97955.13
2022-09-22T14:22:50.384Z,97957.16
2022-09-22T14:32:56.860Z,97939.19
2022-09-22T14:43:04.116Z,97940.38
2022-09-22T14:53:23.936Z,97922.53
2022-09-22T15:03:29.035Z,97928.75
2022-09-22T15:13:36.612Z,97916.19
2022-09-22T15:23:41.692Z,97917.38
2022-09-22T15:33:43.569Z,97916.91
2022-09-22T15:43:45.361Z,97917.38
2022-09-22T15:53:46.793Z,97914.28
2022-09-22T16:03:48.262Z,97911.50
2022-09-22T16:13:49.701Z,97910.16
2022-09-22T16:23:51.211Z,97908.63
2022-09-22T16:34:01.834Z,97909.38
2022-09-22T16:44:06.459Z,97900.16
2022-09-22T16:54:13.571Z,97910.31
2022-09-22T17:04:16.828Z,97913.88
2022-09-22T17:14:24.284Z,97914.16
2022-09-22T17:24:27.004Z,97918.88
2022-09-22T17:34:30.350Z,97916.03
2022-09-22T17:44:33.526Z,97917.16
2022-09-22T17:54:56.161Z,97926.19
2022-09-22T18:04:58.084Z,97932.78
2022-09-22T18:15:03.756Z,97928.75
2022-09-22T18:25:08.824Z,97940.09
2022-09-22T18:35:12.738Z,97947.44
2022-09-22T18:45:14.401Z,97947.06
2022-09-22T18:55:18.227Z,97957.25
2022-09-22T19:05:19.902Z,97956.63
2022-09-22T19:15:21.374Z,97969.19
2022-09-22T19:25:23.456Z,97962.94
2022-09-22T19:35:25.281Z,97958.09
2022-09-22T19:45:26.684Z,97951.53
2022-09-22T19:55:28.177Z,97953.00
2022-09-22T20:05:35.307Z,97946.31
2022-09-22T20:15:40.818Z,97953.22
2022-09-22T20:25:45.442Z,97953.25
2022-09-22T20:35:51.318Z,97951.06
2022-09-22T20:46:00.812Z,97955.16
2022-09-22T20:56:02.511Z,97948.91
2022-09-22T21:06:06.260Z,97948.50
2022-09-22T21:16:08.500Z,97948.63
2022-09-22T21:26:12.173Z,97943.13
2022-09-22T21:36:17.161Z,97934.97
2022-09-22T21:46:29.878Z,97934.28
2022-09-22T21:56:33.381Z,97934.06
2022-09-22T22:06:40.089Z,97924.06
2022-09-22T22:16:43.790Z,97922.69
2022-09-22T22:26:49.540Z,97923.66
2022-09-22T22:36:52.730Z,97930.34
2022-09-22T22:46:54.122Z,97925.69
2022-09-22T22:56:55.538Z,97914.72
2022-09-22T23:06:57.033Z,97918.56
2022-09-22T23:16:58.509Z,97910.22
2022-09-22T23:26:59.912Z,97901.09
2022-09-22T23:37:01.279Z,97904.44
2022-09-22T23:47:03.101Z,97896.47
2022-09-22T23:57:04.796Z,97892.28
